Overview Statistics Trail Chart Weather Telemetry Raw packets
 

This is the latest recevied weather packets stored in our database for station/object YO3FNC-10. If no packets are shown the sender has not sent any weather packets the latest 10 day(s).

<< 5 6 7 8 9 10 11 >>
Time Temp. Humidity Pressure Rain* Wind** Luminosity Snow
1788417082 28.89° C 39% 1018.4 hPa - - - -
1788416182 28.89° C 40% 1018.3 hPa - - - -
1788415281 28.89° C 40% 1018.3 hPa - - - -
1788414381 28.89° C 40% 1018.3 hPa - - - -
1788413481 28.33° C 40% 1018.4 hPa - - - -
1788412581 28.33° C 40% 1018.3 hPa - - - -
1788411681 27.78° C 41% 1018.2 hPa - - - -
1788410781 27.78° C 42% 1018.1 hPa - - - -
1788409881 27.78° C 42% 1018 hPa - - - -
1788408981 28.89° C 41% 1017.8 hPa - - - -
1788408080 29.44° C 39% 1017.8 hPa - - - -
1788407180 30° C 39% 1017.6 hPa - - - -
1788406280 30° C 38% 1017.6 hPa - - - -
1788405380 29.44° C 39% 1017.6 hPa - - - -
1788404480 29.44° C 39% 1017.7 hPa - - - -
1788403580 29.44° C 38% 1017.7 hPa - - - -
1788402680 30° C 38% 1017.6 hPa - - - -
1788401780 30° C 38% 1017.6 hPa - - - -
1788400880 29.44° C 38% 1017.6 hPa - - - -
1788399979 30° C 38% 1017.4 hPa - - - -
1788399079 29.44° C 37% 1017.6 hPa - - - -
1788398179 29.44° C 37% 1017.7 hPa - - - -
1788397279 29.44° C 37% 1017.6 hPa - - - -
1788396379 29.44° C 37% 1017.5 hPa - - - -
1788395479 29.44° C 38% 1017.5 hPa - - - -

* Rain since midnight (hover to see other rain measurements)
** Current wind speed in m/s (hover to see current wind gust speed)